sensor_id;sensor_type;location;lat;lon;timestamp;temperature;humidity
52211;DHT22;38179;52.756;6.906;2022-12-18T00:01:26;-4.70;99.90
52211;DHT22;38179;52.756;6.906;2022-12-18T00:03:53;-4.70;99.90
52211;DHT22;38179;52.756;6.906;2022-12-18T00:06:20;-4.70;99.90
52211;DHT22;38179;52.756;6.906;2022-12-18T00:08:47;-4.70;99.90
52211;DHT22;38179;52.756;6.906;2022-12-18T00:11:18;-4.80;99.90
52211;DHT22;38179;52.756;6.906;2022-12-18T00:13:45;-4.80;99.90
52211;DHT22;38179;52.756;6.906;2022-12-18T00:16:13;-4.80;99.90
52211;DHT22;38179;52.756;6.906;2022-12-18T00:18:39;-4.80;99.90
52211;DHT22;38179;52.756;6.906;2022-12-18T00:21:08;-4.80;99.90
52211;DHT22;38179;52.756;6.906;2022-12-18T00:23:35;-4.80;99.90
52211;DHT22;38179;52.756;6.906;2022-12-18T00:26:03;-4.80;99.90
52211;DHT22;38179;52.756;6.906;2022-12-18T00:28:29;-4.80;99.90
52211;DHT22;38179;52.756;6.906;2022-12-18T00:31:04;-4.80;99.90
52211;DHT22;38179;52.756;6.906;2022-12-18T00:33:30;-4.90;99.90
52211;DHT22;38179;52.756;6.906;2022-12-18T00:36:01;-4.90;99.90
52211;DHT22;38179;52.756;6.906;2022-12-18T00:38:27;-4.90;99.90
52211;DHT22;38179;52.756;6.906;2022-12-18T00:40:53;-4.90;99.90
52211;DHT22;38179;52.756;6.906;2022-12-18T00:43:19;-5.00;99.90
52211;DHT22;38179;52.756;6.906;2022-12-18T00:45:45;-5.00;99.90
52211;DHT22;38179;52.756;6.906;2022-12-18T00:48:11;-5.10;99.90
52211;DHT22;38179;52.756;6.906;2022-12-18T00:50:37;-5.10;99.90
52211;DHT22;38179;52.756;6.906;2022-12-18T00:53:03;-5.10;99.90
52211;DHT22;38179;52.756;6.906;2022-12-18T00:55:29;-5.10;99.90
52211;DHT22;38179;52.756;6.906;2022-12-18T00:57:55;-5.20;99.90
52211;DHT22;38179;52.756;6.906;2022-12-18T01:00:21;-5.20;99.90
52211;DHT22;38179;52.756;6.906;2022-12-18T01:02:48;-5.20;99.90
52211;DHT22;38179;52.756;6.906;2022-12-18T01:05:14;-5.30;99.90
52211;DHT22;38179;52.756;6.906;2022-12-18T01:07:40;-5.30;99.90
52211;DHT22;38179;52.756;6.906;2022-12-18T01:10:09;-5.40;99.90
52211;DHT22;38179;52.756;6.906;2022-12-18T01:12:37;-5.40;99.90
52211;DHT22;38179;52.756;6.906;2022-12-18T01:15:04;-5.40;99.90
52211;DHT22;38179;52.756;6.906;2022-12-18T01:17:30;-5.40;99.90
52211;DHT22;38179;52.756;6.906;2022-12-18T01:19:56;-5.40;99.90
52211;DHT22;38179;52.756;6.906;2022-12-18T01:22:22;-5.50;99.90
52211;DHT22;38179;52.756;6.906;2022-12-18T01:24:48;-5.50;99.90
52211;DHT22;38179;52.756;6.906;2022-12-18T01:27:14;-5.50;99.90
52211;DHT22;38179;52.756;6.906;2022-12-18T01:29:40;-5.60;99.90
52211;DHT22;38179;52.756;6.906;2022-12-18T01:32:06;-5.50;99.90
52211;DHT22;38179;52.756;6.906;2022-12-18T01:34:31;-5.50;99.90
52211;DHT22;38179;52.756;6.906;2022-12-18T01:36:57;-5.60;99.90
52211;DHT22;38179;52.756;6.906;2022-12-18T01:39:23;-5.60;99.90
52211;DHT22;38179;52.756;6.906;2022-12-18T01:41:50;-5.60;99.90
52211;DHT22;38179;52.756;6.906;2022-12-18T01:44:57;-5.70;99.90
52211;DHT22;38179;52.756;6.906;2022-12-18T01:49:50;-5.80;99.90
52211;DHT22;38179;52.756;6.906;2022-12-18T01:52:17;-5.90;99.90
52211;DHT22;38179;52.756;6.906;2022-12-18T01:54:44;-5.90;99.90
52211;DHT22;38179;52.756;6.906;2022-12-18T01:57:10;-6.00;99.90
52211;DHT22;38179;52.756;6.906;2022-12-18T01:59:37;-6.00;99.90
52211;DHT22;38179;52.756;6.906;2022-12-18T02:02:03;-6.00;99.90
52211;DHT22;38179;52.756;6.906;2022-12-18T02:04:30;-6.00;99.90
52211;DHT22;38179;52.756;6.906;2022-12-18T02:09:40;-6.00;99.90
52211;DHT22;38179;52.756;6.906;2022-12-18T02:12:36;-6.10;99.90
52211;DHT22;38179;52.756;6.906;2022-12-18T02:15:13;-6.20;99.90
52211;DHT22;38179;52.756;6.906;2022-12-18T02:17:50;-6.20;99.90
52211;DHT22;38179;52.756;6.906;2022-12-18T02:20:47;-6.30;99.90
52211;DHT22;38179;52.756;6.906;2022-12-18T02:26:26;-6.40;99.90
52211;DHT22;38179;52.756;6.906;2022-12-18T02:29:17;-6.40;99.90
52211;DHT22;38179;52.756;6.906;2022-12-18T02:31:52;-6.50;99.90
52211;DHT22;38179;52.756;6.906;2022-12-18T02:34:22;-6.50;99.90
52211;DHT22;38179;52.756;6.906;2022-12-18T02:36:51;-6.50;99.90
52211;DHT22;38179;52.756;6.906;2022-12-18T02:39:17;-6.50;99.90
52211;DHT22;38179;52.756;6.906;2022-12-18T02:41:46;-6.50;99.90
52211;DHT22;38179;52.756;6.906;2022-12-18T02:44:13;-6.50;99.90
52211;DHT22;38179;52.756;6.906;2022-12-18T02:46:40;-6.50;99.90
52211;DHT22;38179;52.756;6.906;2022-12-18T02:57:42;-6.60;99.90
52211;DHT22;38179;52.756;6.906;2022-12-18T03:00:18;-6.60;99.90
52211;DHT22;38179;52.756;6.906;2022-12-18T03:02:51;-6.60;99.90
52211;DHT22;38179;52.756;6.906;2022-12-18T03:05:22;-6.60;99.90
52211;DHT22;38179;52.756;6.906;2022-12-18T03:07:59;-6.60;99.90
52211;DHT22;38179;52.756;6.906;2022-12-18T03:10:33;-6.70;99.90
52211;DHT22;38179;52.756;6.906;2022-12-18T03:13:10;-6.70;99.90
52211;DHT22;38179;52.756;6.906;2022-12-18T03:15:47;-6.70;99.90
52211;DHT22;38179;52.756;6.906;2022-12-18T03:18:24;-6.70;99.90
52211;DHT22;38179;52.756;6.906;2022-12-18T03:20:52;-6.60;99.90
52211;DHT22;38179;52.756;6.906;2022-12-18T03:23:27;-6.60;99.90
52211;DHT22;38179;52.756;6.906;2022-12-18T03:25:57;-6.60;99.90
52211;DHT22;38179;52.756;6.906;2022-12-18T03:28:27;-6.70;99.90
52211;DHT22;38179;52.756;6.906;2022-12-18T03:30:58;-6.70;99.90
52211;DHT22;38179;52.756;6.906;2022-12-18T03:36:04;-6.80;99.90
52211;DHT22;38179;52.756;6.906;2022-12-18T03:38:30;-6.80;99.90
52211;DHT22;38179;52.756;6.906;2022-12-18T03:44:20;-6.80;99.90
52211;DHT22;38179;52.756;6.906;2022-12-18T03:46:51;-6.90;99.90
52211;DHT22;38179;52.756;6.906;2022-12-18T03:52:04;-6.80;99.90
52211;DHT22;38179;52.756;6.906;2022-12-18T03:54:33;-6.90;99.90
52211;DHT22;38179;52.756;6.906;2022-12-18T03:57:11;-6.90;99.90
52211;DHT22;38179;52.756;6.906;2022-12-18T03:59:40;-7.00;99.90
52211;DHT22;38179;52.756;6.906;2022-12-18T04:02:07;-7.00;99.90
52211;DHT22;38179;52.756;6.906;2022-12-18T04:04:35;-7.00;99.90
52211;DHT22;38179;52.756;6.906;2022-12-18T04:07:03;-7.00;99.90
52211;DHT22;38179;52.756;6.906;2022-12-18T04:09:31;-7.00;99.90
52211;DHT22;38179;52.756;6.906;2022-12-18T04:11:58;-6.90;99.90
52211;DHT22;38179;52.756;6.906;2022-12-18T04:14:24;-6.90;99.90
52211;DHT22;38179;52.756;6.906;2022-12-18T04:16:50;-7.00;99.90
52211;DHT22;38179;52.756;6.906;2022-12-18T04:19:16;-7.10;99.90
52211;DHT22;38179;52.756;6.906;2022-12-18T04:21:42;-7.00;99.90
52211;DHT22;38179;52.756;6.906;2022-12-18T04:24:08;-7.10;99.90
52211;DHT22;38179;52.756;6.906;2022-12-18T04:26:34;-7.10;99.90
52211;DHT22;38179;52.756;6.906;2022-12-18T04:29:00;-7.10;99.90
52211;DHT22;38179;52.756;6.906;2022-12-18T04:31:27;-7.20;99.90
52211;DHT22;38179;52.756;6.906;2022-12-18T04:33:53;-7.20;99.90
52211;DHT22;38179;52.756;6.906;2022-12-18T04:36:18;-7.20;99.90
52211;DHT22;38179;52.756;6.906;2022-12-18T04:38:44;-7.20;99.90
52211;DHT22;38179;52.756;6.906;2022-12-18T04:41:13;-7.30;99.90
52211;DHT22;38179;52.756;6.906;2022-12-18T04:43:39;-7.20;99.90
52211;DHT22;38179;52.756;6.906;2022-12-18T04:46:06;-7.20;99.90
52211;DHT22;38179;52.756;6.906;2022-12-18T04:48:33;-7.20;99.90
52211;DHT22;38179;52.756;6.906;2022-12-18T04:50:59;-7.30;99.90
52211;DHT22;38179;52.756;6.906;2022-12-18T04:53:25;-7.30;99.90
52211;DHT22;38179;52.756;6.906;2022-12-18T04:55:51;-7.30;99.90
52211;DHT22;38179;52.756;6.906;2022-12-18T04:58:27;-7.20;99.90
52211;DHT22;38179;52.756;6.906;2022-12-18T05:00:52;-7.20;99.90
52211;DHT22;38179;52.756;6.906;2022-12-18T05:03:18;-7.20;99.90
52211;DHT22;38179;52.756;6.906;2022-12-18T05:05:44;-7.30;99.90
52211;DHT22;38179;52.756;6.906;2022-12-18T05:08:10;-7.30;99.90
52211;DHT22;38179;52.756;6.906;2022-12-18T05:10:36;-7.30;99.90
52211;DHT22;38179;52.756;6.906;2022-12-18T05:13:02;-7.40;99.90
52211;DHT22;38179;52.756;6.906;2022-12-18T05:15:32;-7.40;99.90
52211;DHT22;38179;52.756;6.906;2022-12-18T05:17:59;-7.40;99.90
52211;DHT22;38179;52.756;6.906;2022-12-18T05:20:26;-7.30;99.90
52211;DHT22;38179;52.756;6.906;2022-12-18T05:22:52;-7.30;99.90
52211;DHT22;38179;52.756;6.906;2022-12-18T05:25:19;-7.30;99.90
52211;DHT22;38179;52.756;6.906;2022-12-18T05:27:45;-7.30;99.90
52211;DHT22;38179;52.756;6.906;2022-12-18T05:30:12;-7.40;99.90
52211;DHT22;38179;52.756;6.906;2022-12-18T05:32:39;-7.30;99.90
52211;DHT22;38179;52.756;6.906;2022-12-18T05:35:06;-7.30;99.90
52211;DHT22;38179;52.756;6.906;2022-12-18T05:37:33;-7.40;99.90
52211;DHT22;38179;52.756;6.906;2022-12-18T05:39:59;-7.40;99.90
52211;DHT22;38179;52.756;6.906;2022-12-18T05:42:25;-7.30;99.90
52211;DHT22;38179;52.756;6.906;2022-12-18T05:44:53;-7.40;99.90
52211;DHT22;38179;52.756;6.906;2022-12-18T05:47:19;-7.30;99.90
52211;DHT22;38179;52.756;6.906;2022-12-18T05:49:45;-7.40;99.90
52211;DHT22;38179;52.756;6.906;2022-12-18T05:52:11;-7.40;99.90
52211;DHT22;38179;52.756;6.906;2022-12-18T05:54:37;-7.30;99.90
52211;DHT22;38179;52.756;6.906;2022-12-18T05:57:04;-7.40;99.90
52211;DHT22;38179;52.756;6.906;2022-12-18T05:59:30;-7.40;99.90
52211;DHT22;38179;52.756;6.906;2022-12-18T06:01:56;-7.40;99.90
52211;DHT22;38179;52.756;6.906;2022-12-18T06:04:22;-7.50;99.90
52211;DHT22;38179;52.756;6.906;2022-12-18T06:06:47;-7.50;99.90
52211;DHT22;38179;52.756;6.906;2022-12-18T06:09:13;-7.50;99.90
52211;DHT22;38179;52.756;6.906;2022-12-18T06:11:39;-7.60;99.90
52211;DHT22;38179;52.756;6.906;2022-12-18T06:14:06;-7.50;99.90
52211;DHT22;38179;52.756;6.906;2022-12-18T06:16:32;-7.60;99.90
52211;DHT22;38179;52.756;6.906;2022-12-18T06:18:59;-7.60;99.90
52211;DHT22;38179;52.756;6.906;2022-12-18T06:21:26;-7.50;99.90
52211;DHT22;38179;52.756;6.906;2022-12-18T06:23:52;-7.60;99.90
52211;DHT22;38179;52.756;6.906;2022-12-18T06:26:18;-7.60;99.90
52211;DHT22;38179;52.756;6.906;2022-12-18T06:28:44;-7.60;99.90
52211;DHT22;38179;52.756;6.906;2022-12-18T06:31:10;-7.50;99.90
52211;DHT22;38179;52.756;6.906;2022-12-18T06:33:36;-7.50;99.90
52211;DHT22;38179;52.756;6.906;2022-12-18T06:36:09;-7.60;99.90
52211;DHT22;38179;52.756;6.906;2022-12-18T06:38:37;-7.60;99.90
52211;DHT22;38179;52.756;6.906;2022-12-18T06:41:21;-7.60;99.90
52211;DHT22;38179;52.756;6.906;2022-12-18T06:43:47;-7.60;99.90
52211;DHT22;38179;52.756;6.906;2022-12-18T06:46:13;-7.50;99.90
52211;DHT22;38179;52.756;6.906;2022-12-18T06:48:39;-7.60;99.90
52211;DHT22;38179;52.756;6.906;2022-12-18T06:51:05;-7.60;99.90
52211;DHT22;38179;52.756;6.906;2022-12-18T06:53:32;-7.60;99.90
52211;DHT22;38179;52.756;6.906;2022-12-18T06:56:05;-7.60;99.90
52211;DHT22;38179;52.756;6.906;2022-12-18T06:58:32;-7.60;99.90
52211;DHT22;38179;52.756;6.906;2022-12-18T07:01:02;-7.60;99.90
52211;DHT22;38179;52.756;6.906;2022-12-18T07:03:29;-7.60;99.90
52211;DHT22;38179;52.756;6.906;2022-12-18T07:05:55;-7.60;99.90
52211;DHT22;38179;52.756;6.906;2022-12-18T07:08:21;-7.60;99.90
52211;DHT22;38179;52.756;6.906;2022-12-18T07:10:47;-7.60;99.90
52211;DHT22;38179;52.756;6.906;2022-12-18T07:13:15;-7.60;99.90
52211;DHT22;38179;52.756;6.906;2022-12-18T07:15:42;-7.60;99.90
52211;DHT22;38179;52.756;6.906;2022-12-18T07:18:08;-7.50;99.90
52211;DHT22;38179;52.756;6.906;2022-12-18T07:20:34;-7.50;99.90
52211;DHT22;38179;52.756;6.906;2022-12-18T07:23:03;-7.50;99.90
52211;DHT22;38179;52.756;6.906;2022-12-18T07:25:29;-7.50;99.90
52211;DHT22;38179;52.756;6.906;2022-12-18T07:27:55;-7.50;99.90
52211;DHT22;38179;52.756;6.906;2022-12-18T07:30:21;-7.60;99.90
52211;DHT22;38179;52.756;6.906;2022-12-18T07:32:46;-7.60;99.90
52211;DHT22;38179;52.756;6.906;2022-12-18T07:35:12;-7.60;99.90
52211;DHT22;38179;52.756;6.906;2022-12-18T07:37:38;-7.50;99.90
52211;DHT22;38179;52.756;6.906;2022-12-18T07:40:05;-7.50;99.90
52211;DHT22;38179;52.756;6.906;2022-12-18T07:42:31;-7.50;99.90
52211;DHT22;38179;52.756;6.906;2022-12-18T07:45:01;-7.40;99.90
52211;DHT22;38179;52.756;6.906;2022-12-18T07:47:29;-7.30;99.90
52211;DHT22;38179;52.756;6.906;2022-12-18T07:49:55;-7.20;99.90
52211;DHT22;38179;52.756;6.906;2022-12-18T07:52:21;-7.20;99.90
52211;DHT22;38179;52.756;6.906;2022-12-18T07:54:47;-7.10;99.90
52211;DHT22;38179;52.756;6.906;2022-12-18T08:08:27;-6.90;99.90
52211;DHT22;38179;52.756;6.906;2022-12-18T08:10:54;-6.80;99.90
52211;DHT22;38179;52.756;6.906;2022-12-18T08:13:20;-6.70;99.90
52211;DHT22;38179;52.756;6.906;2022-12-18T08:15:46;-6.40;99.90
52211;DHT22;38179;52.756;6.906;2022-12-18T08:18:11;-6.30;99.90
52211;DHT22;38179;52.756;6.906;2022-12-18T08:20:37;-6.10;99.90
52211;DHT22;38179;52.756;6.906;2022-12-18T08:23:03;-6.20;99.90
52211;DHT22;38179;52.756;6.906;2022-12-18T08:25:29;-6.20;99.90
52211;DHT22;38179;52.756;6.906;2022-12-18T08:27:55;-6.20;99.90
52211;DHT22;38179;52.756;6.906;2022-12-18T08:30:22;-6.20;99.90
52211;DHT22;38179;52.756;6.906;2022-12-18T08:32:51;-6.20;99.90
52211;DHT22;38179;52.756;6.906;2022-12-18T08:35:18;-6.20;99.90
52211;DHT22;38179;52.756;6.906;2022-12-18T08:37:44;-6.20;99.90
52211;DHT22;38179;52.756;6.906;2022-12-18T08:40:10;-6.20;99.90
52211;DHT22;38179;52.756;6.906;2022-12-18T08:42:36;-6.20;99.90
52211;DHT22;38179;52.756;6.906;2022-12-18T08:45:20;-6.20;99.90
52211;DHT22;38179;52.756;6.906;2022-12-18T08:47:46;-6.20;99.90
52211;DHT22;38179;52.756;6.906;2022-12-18T08:50:12;-6.20;99.90
52211;DHT22;38179;52.756;6.906;2022-12-18T08:52:38;-6.10;99.90
52211;DHT22;38179;52.756;6.906;2022-12-18T08:55:04;-6.10;99.90
52211;DHT22;38179;52.756;6.906;2022-12-18T08:57:30;-6.10;99.90
52211;DHT22;38179;52.756;6.906;2022-12-18T08:59:56;-6.00;99.90
52211;DHT22;38179;52.756;6.906;2022-12-18T09:02:22;-6.00;99.90
52211;DHT22;38179;52.756;6.906;2022-12-18T09:04:48;-5.90;99.90
52211;DHT22;38179;52.756;6.906;2022-12-18T09:07:14;-5.90;99.90
52211;DHT22;38179;52.756;6.906;2022-12-18T09:09:40;-5.80;99.90
52211;DHT22;38179;52.756;6.906;2022-12-18T09:12:05;-5.70;99.90
52211;DHT22;38179;52.756;6.906;2022-12-18T09:14:31;-5.70;99.90
52211;DHT22;38179;52.756;6.906;2022-12-18T09:16:57;-5.60;99.90
52211;DHT22;38179;52.756;6.906;2022-12-18T09:19:23;-5.50;99.90
52211;DHT22;38179;52.756;6.906;2022-12-18T09:21:49;-5.40;99.90
52211;DHT22;38179;52.756;6.906;2022-12-18T09:24:15;-5.30;99.90
52211;DHT22;38179;52.756;6.906;2022-12-18T09:26:41;-5.20;99.90
52211;DHT22;38179;52.756;6.906;2022-12-18T09:29:07;-5.20;99.90
52211;DHT22;38179;52.756;6.906;2022-12-18T09:31:35;-5.10;99.90
52211;DHT22;38179;52.756;6.906;2022-12-18T09:34:01;-5.10;99.90
52211;DHT22;38179;52.756;6.906;2022-12-18T09:36:27;-5.00;99.90
52211;DHT22;38179;52.756;6.906;2022-12-18T09:38:53;-5.00;99.90
52211;DHT22;38179;52.756;6.906;2022-12-18T09:44:20;-4.80;99.90
52211;DHT22;38179;52.756;6.906;2022-12-18T09:49:37;-4.70;99.90
52211;DHT22;38179;52.756;6.906;2022-12-18T09:52:30;-4.60;99.90
52211;DHT22;38179;52.756;6.906;2022-12-18T09:55:46;-4.60;99.90
52211;DHT22;38179;52.756;6.906;2022-12-18T09:57:59;-4.50;99.90
52211;DHT22;38179;52.756;6.906;2022-12-18T10:00:27;-4.40;99.90
52211;DHT22;38179;52.756;6.906;2022-12-18T10:03:00;-4.40;99.90
52211;DHT22;38179;52.756;6.906;2022-12-18T10:05:57;-4.20;99.90
52211;DHT22;38179;52.756;6.906;2022-12-18T10:08:43;-4.20;99.90
52211;DHT22;38179;52.756;6.906;2022-12-18T10:11:28;-4.10;99.90
52211;DHT22;38179;52.756;6.906;2022-12-18T10:15:04;-4.00;99.90
52211;DHT22;38179;52.756;6.906;2022-12-18T10:17:23;-3.90;99.90
52211;DHT22;38179;52.756;6.906;2022-12-18T10:20:10;-3.70;99.90
52211;DHT22;38179;52.756;6.906;2022-12-18T10:27:46;-3.50;99.90
52211;DHT22;38179;52.756;6.906;2022-12-18T10:30:15;-3.50;99.90
52211;DHT22;38179;52.756;6.906;2022-12-18T10:32:41;-3.50;99.90
52211;DHT22;38179;52.756;6.906;2022-12-18T10:35:20;-3.50;99.90
52211;DHT22;38179;52.756;6.906;2022-12-18T10:43:32;-3.50;99.90
52211;DHT22;38179;52.756;6.906;2022-12-18T10:48:53;-3.50;99.90
52211;DHT22;38179;52.756;6.906;2022-12-18T10:51:31;-3.50;99.90
52211;DHT22;38179;52.756;6.906;2022-12-18T10:54:15;-3.40;99.90
52211;DHT22;38179;52.756;6.906;2022-12-18T10:56:41;-3.40;99.90
52211;DHT22;38179;52.756;6.906;2022-12-18T10:59:10;-3.50;99.90
52211;DHT22;38179;52.756;6.906;2022-12-18T11:01:57;-3.40;99.90
52211;DHT22;38179;52.756;6.906;2022-12-18T11:04:32;-3.40;99.90
52211;DHT22;38179;52.756;6.906;2022-12-18T11:07:06;-3.40;99.90
52211;DHT22;38179;52.756;6.906;2022-12-18T11:09:34;-3.30;99.90
52211;DHT22;38179;52.756;6.906;2022-12-18T11:12:03;-3.30;99.90
52211;DHT22;38179;52.756;6.906;2022-12-18T11:14:48;-3.30;99.90
52211;DHT22;38179;52.756;6.906;2022-12-18T11:17:33;-3.30;99.90
52211;DHT22;38179;52.756;6.906;2022-12-18T11:23:18;-3.20;99.90
52211;DHT22;38179;52.756;6.906;2022-12-18T11:25:52;-3.20;99.90
52211;DHT22;38179;52.756;6.906;2022-12-18T11:28:51;-3.10;99.90
52211;DHT22;38179;52.756;6.906;2022-12-18T11:31:28;-3.10;99.90
52211;DHT22;38179;52.756;6.906;2022-12-18T11:39:43;-3.00;99.90
52211;DHT22;38179;52.756;6.906;2022-12-18T11:50:20;-2.90;99.90
52211;DHT22;38179;52.756;6.906;2022-12-18T11:52:47;-2.90;99.90
52211;DHT22;38179;52.756;6.906;2022-12-18T11:55:27;-2.90;99.90
52211;DHT22;38179;52.756;6.906;2022-12-18T11:58:35;-2.80;99.90
52211;DHT22;38179;52.756;6.906;2022-12-18T12:15:39;-2.60;99.90
52211;DHT22;38179;52.756;6.906;2022-12-18T12:18:25;-1.90;99.90
52211;DHT22;38179;52.756;6.906;2022-12-18T12:21:28;-2.60;99.90
52211;DHT22;38179;52.756;6.906;2022-12-18T12:29:37;-2.50;99.90
52211;DHT22;38179;52.756;6.906;2022-12-18T12:35:04;-2.50;99.90
52211;DHT22;38179;52.756;6.906;2022-12-18T12:40:23;-2.50;99.90
52211;DHT22;38179;52.756;6.906;2022-12-18T12:42:59;-2.40;99.90
52211;DHT22;38179;52.756;6.906;2022-12-18T12:48:18;-2.40;99.90
52211;DHT22;38179;52.756;6.906;2022-12-18T12:50:46;-2.40;99.90
52211;DHT22;38179;52.756;6.906;2022-12-18T12:53:32;-2.40;99.90
52211;DHT22;38179;52.756;6.906;2022-12-18T12:56:01;-2.40;99.90
52211;DHT22;38179;52.756;6.906;2022-12-18T13:09:00;-2.40;99.90
52211;DHT22;38179;52.756;6.906;2022-12-18T13:11:39;-2.30;99.90
52211;DHT22;38179;52.756;6.906;2022-12-18T13:14:38;-2.30;99.90
52211;DHT22;38179;52.756;6.906;2022-12-18T13:17:34;-2.30;99.90
52211;DHT22;38179;52.756;6.906;2022-12-18T13:20:11;-2.30;99.90
52211;DHT22;38179;52.756;6.906;2022-12-18T13:22:43;-2.30;99.90
52211;DHT22;38179;52.756;6.906;2022-12-18T13:25:35;-2.30;99.90
52211;DHT22;38179;52.756;6.906;2022-12-18T13:30:43;-2.30;99.90
52211;DHT22;38179;52.756;6.906;2022-12-18T13:40:59;-2.30;99.90
52211;DHT22;38179;52.756;6.906;2022-12-18T13:43:55;-2.30;99.90
52211;DHT22;38179;52.756;6.906;2022-12-18T13:46:41;-2.30;99.90
52211;DHT22;38179;52.756;6.906;2022-12-18T13:51:44;-2.30;99.90
52211;DHT22;38179;52.756;6.906;2022-12-18T13:54:39;-2.30;99.90
52211;DHT22;38179;52.756;6.906;2022-12-18T13:57:23;-2.30;99.90
52211;DHT22;38179;52.756;6.906;2022-12-18T13:59:50;-2.30;99.90
52211;DHT22;38179;52.756;6.906;2022-12-18T14:02:22;-2.30;99.90
52211;DHT22;38179;52.756;6.906;2022-12-18T14:04:50;-2.30;99.90
52211;DHT22;38179;52.756;6.906;2022-12-18T14:07:19;-2.30;99.90
52211;DHT22;38179;52.756;6.906;2022-12-18T14:09:49;-2.30;99.90
52211;DHT22;38179;52.756;6.906;2022-12-18T14:12:21;-2.30;99.90
52211;DHT22;38179;52.756;6.906;2022-12-18T14:17:50;-2.40;99.90
52211;DHT22;38179;52.756;6.906;2022-12-18T14:20:17;-2.40;99.90
52211;DHT22;38179;52.756;6.906;2022-12-18T14:22:48;-2.40;99.90
52211;DHT22;38179;52.756;6.906;2022-12-18T14:25:24;-2.40;99.90
52211;DHT22;38179;52.756;6.906;2022-12-18T14:30:38;-2.40;99.90
52211;DHT22;38179;52.756;6.906;2022-12-18T14:35:39;-2.40;99.90
52211;DHT22;38179;52.756;6.906;2022-12-18T14:43:22;-2.50;99.90
52211;DHT22;38179;52.756;6.906;2022-12-18T14:45:48;-2.50;99.90
52211;DHT22;38179;52.756;6.906;2022-12-18T14:51:03;-2.50;99.90
52211;DHT22;38179;52.756;6.906;2022-12-18T14:53:42;-2.50;99.90
52211;DHT22;38179;52.756;6.906;2022-12-18T14:59:23;-2.50;99.90
52211;DHT22;38179;52.756;6.906;2022-12-18T15:04:43;-2.60;99.90
52211;DHT22;38179;52.756;6.906;2022-12-18T15:07:13;-2.60;99.90
52211;DHT22;38179;52.756;6.906;2022-12-18T15:10:02;-2.60;99.90
52211;DHT22;38179;52.756;6.906;2022-12-18T15:12:35;-2.50;99.90
52211;DHT22;38179;52.756;6.906;2022-12-18T15:15:03;-2.60;99.90
52211;DHT22;38179;52.756;6.906;2022-12-18T15:17:29;-2.50;99.90
52211;DHT22;38179;52.756;6.906;2022-12-18T15:20:02;-2.60;99.90
52211;DHT22;38179;52.756;6.906;2022-12-18T15:22:34;-2.60;99.90
52211;DHT22;38179;52.756;6.906;2022-12-18T15:25:01;-2.60;99.90
52211;DHT22;38179;52.756;6.906;2022-12-18T15:27:34;-2.60;99.90
52211;DHT22;38179;52.756;6.906;2022-12-18T15:30:02;-2.60;99.90
52211;DHT22;38179;52.756;6.906;2022-12-18T15:32:28;-2.60;99.90
52211;DHT22;38179;52.756;6.906;2022-12-18T15:37:41;-2.60;99.90
52211;DHT22;38179;52.756;6.906;2022-12-18T15:40:12;-2.60;99.90
52211;DHT22;38179;52.756;6.906;2022-12-18T15:42:39;-2.60;99.90
52211;DHT22;38179;52.756;6.906;2022-12-18T15:45:23;-2.60;99.90
52211;DHT22;38179;52.756;6.906;2022-12-18T15:47:49;-2.60;99.90
52211;DHT22;38179;52.756;6.906;2022-12-18T15:50:15;-2.60;99.90
52211;DHT22;38179;52.756;6.906;2022-12-18T15:52:43;-2.50;99.90
52211;DHT22;38179;52.756;6.906;2022-12-18T15:55:23;-2.50;99.90
52211;DHT22;38179;52.756;6.906;2022-12-18T15:58:09;-2.50;99.90
52211;DHT22;38179;52.756;6.906;2022-12-18T16:00:37;-2.50;99.90
52211;DHT22;38179;52.756;6.906;2022-12-18T16:03:04;-2.50;99.90
52211;DHT22;38179;52.756;6.906;2022-12-18T16:05:31;-2.50;99.90
52211;DHT22;38179;52.756;6.906;2022-12-18T16:07:57;-2.50;99.90
52211;DHT22;38179;52.756;6.906;2022-12-18T16:10:25;-2.50;99.90
52211;DHT22;38179;52.756;6.906;2022-12-18T16:12:52;-2.50;99.90
52211;DHT22;38179;52.756;6.906;2022-12-18T16:15:18;-2.50;99.90
52211;DHT22;38179;52.756;6.906;2022-12-18T16:17:44;-2.50;99.90
52211;DHT22;38179;52.756;6.906;2022-12-18T16:20:18;-2.40;99.90
52211;DHT22;38179;52.756;6.906;2022-12-18T16:22:45;-2.40;99.90
52211;DHT22;38179;52.756;6.906;2022-12-18T16:25:29;-2.40;99.90
52211;DHT22;38179;52.756;6.906;2022-12-18T16:27:56;-2.50;99.90
52211;DHT22;38179;52.756;6.906;2022-12-18T16:30:28;-2.50;99.90
52211;DHT22;38179;52.756;6.906;2022-12-18T16:32:54;-2.50;99.90
52211;DHT22;38179;52.756;6.906;2022-12-18T16:35:21;-2.50;99.90
52211;DHT22;38179;52.756;6.906;2022-12-18T16:37:47;-2.50;99.90
52211;DHT22;38179;52.756;6.906;2022-12-18T16:40:14;-2.50;99.90
52211;DHT22;38179;52.756;6.906;2022-12-18T16:42:42;-2.50;99.90
52211;DHT22;38179;52.756;6.906;2022-12-18T16:45:11;-2.50;99.90
52211;DHT22;38179;52.756;6.906;2022-12-18T16:47:37;-2.50;99.90
52211;DHT22;38179;52.756;6.906;2022-12-18T16:50:04;-2.50;99.90
52211;DHT22;38179;52.756;6.906;2022-12-18T16:52:30;-2.50;99.90
52211;DHT22;38179;52.756;6.906;2022-12-18T16:54:56;-2.50;99.90
52211;DHT22;38179;52.756;6.906;2022-12-18T16:57:23;-2.40;99.90
52211;DHT22;38179;52.756;6.906;2022-12-18T16:59:49;-2.40;99.90
52211;DHT22;38179;52.756;6.906;2022-12-18T17:02:16;-2.40;99.90
52211;DHT22;38179;52.756;6.906;2022-12-18T17:04:42;-2.40;99.90
52211;DHT22;38179;52.756;6.906;2022-12-18T17:07:09;-2.40;99.90
52211;DHT22;38179;52.756;6.906;2022-12-18T17:09:35;-2.40;99.90
52211;DHT22;38179;52.756;6.906;2022-12-18T17:12:01;-2.40;99.90
52211;DHT22;38179;52.756;6.906;2022-12-18T17:14:27;-2.40;99.90
52211;DHT22;38179;52.756;6.906;2022-12-18T17:16:54;-2.40;99.90
52211;DHT22;38179;52.756;6.906;2022-12-18T17:19:22;-2.40;99.90
52211;DHT22;38179;52.756;6.906;2022-12-18T17:21:49;-2.30;99.90
52211;DHT22;38179;52.756;6.906;2022-12-18T17:24:16;-2.30;99.90
52211;DHT22;38179;52.756;6.906;2022-12-18T17:26:42;-2.30;99.90
52211;DHT22;38179;52.756;6.906;2022-12-18T17:29:11;-2.30;99.90
52211;DHT22;38179;52.756;6.906;2022-12-18T17:31:38;-2.30;99.90
52211;DHT22;38179;52.756;6.906;2022-12-18T17:34:04;-2.30;99.90
52211;DHT22;38179;52.756;6.906;2022-12-18T17:36:30;-2.30;99.90
52211;DHT22;38179;52.756;6.906;2022-12-18T17:39:00;-2.30;99.90
52211;DHT22;38179;52.756;6.906;2022-12-18T17:41:28;-2.30;99.90
52211;DHT22;38179;52.756;6.906;2022-12-18T17:46:22;-2.30;99.90
52211;DHT22;38179;52.756;6.906;2022-12-18T17:48:48;-2.30;99.90
52211;DHT22;38179;52.756;6.906;2022-12-18T17:51:15;-2.30;99.90
52211;DHT22;38179;52.756;6.906;2022-12-18T17:53:41;-2.30;99.90
52211;DHT22;38179;52.756;6.906;2022-12-18T17:56:12;-2.20;99.90
52211;DHT22;38179;52.756;6.906;2022-12-18T17:58:38;-2.20;99.90
52211;DHT22;38179;52.756;6.906;2022-12-18T18:01:05;-2.20;99.90
52211;DHT22;38179;52.756;6.906;2022-12-18T18:03:32;-2.20;99.90
52211;DHT22;38179;52.756;6.906;2022-12-18T18:05:59;-2.20;99.90
52211;DHT22;38179;52.756;6.906;2022-12-18T18:08:26;-2.20;99.90
52211;DHT22;38179;52.756;6.906;2022-12-18T18:10:52;-2.20;99.90
52211;DHT22;38179;52.756;6.906;2022-12-18T18:13:24;-2.20;99.90
52211;DHT22;38179;52.756;6.906;2022-12-18T18:16:09;-2.20;99.90
52211;DHT22;38179;52.756;6.906;2022-12-18T18:18:36;-2.20;99.90
52211;DHT22;38179;52.756;6.906;2022-12-18T18:21:07;-2.20;99.90